createdAt,value
2022-09-27T00:00:14.249Z,840.01
2022-09-27T00:01:14.272Z,839.94
2022-09-27T00:02:14.267Z,839.87
2022-09-27T00:03:14.171Z,839.89
2022-09-27T00:04:14.161Z,839.88
2022-09-27T00:05:14.139Z,839.86
2022-09-27T00:06:14.200Z,839.85
2022-09-27T00:07:14.111Z,839.84
2022-09-27T00:08:14.099Z,839.77
2022-09-27T00:09:14.162Z,839.85
2022-09-27T00:10:14.324Z,839.79
2022-09-27T00:11:14.066Z,839.80
2022-09-27T00:12:14.143Z,839.81
2022-09-27T00:13:14.045Z,839.84
2022-09-27T00:14:14.034Z,839.79
2022-09-27T00:15:14.132Z,839.74
2022-09-27T00:16:14.190Z,839.78
2022-09-27T00:17:14.098Z,839.76
2022-09-27T00:18:13.998Z,839.79
2022-09-27T00:19:14.128Z,839.84
2022-09-27T00:20:13.970Z,839.87
2022-09-27T00:21:13.975Z,839.85
2022-09-27T00:22:13.946Z,839.81
2022-09-27T00:23:13.937Z,839.80
2022-09-27T00:24:13.931Z,839.77
2022-09-27T00:25:13.913Z,839.74
2022-09-27T00:26:13.926Z,839.76
2022-09-27T00:27:13.901Z,839.68
2022-09-27T00:28:13.880Z,839.70
2022-09-27T00:29:13.869Z,839.63
2022-09-27T00:30:13.915Z,839.60
2022-09-27T00:31:13.935Z,839.57
2022-09-27T00:32:13.838Z,839.54
2022-09-27T00:33:13.825Z,839.56
2022-09-27T00:34:14.120Z,839.57
2022-09-27T00:35:13.807Z,839.56
2022-09-27T00:36:13.855Z,839.56
2022-09-27T00:37:13.785Z,839.63
2022-09-27T00:38:13.774Z,839.54
2022-09-27T00:39:13.807Z,839.50
2022-09-27T00:40:18.761Z,839.52
2022-09-27T00:41:14.758Z,839.48
2022-09-27T00:42:13.770Z,839.52
2022-09-27T00:43:13.720Z,839.49
2022-09-27T00:44:13.705Z,839.50
2022-09-27T00:45:13.702Z,839.49
2022-09-27T00:46:13.769Z,839.45
2022-09-27T00:47:13.671Z,839.46
2022-09-27T00:48:13.734Z,839.45
2022-09-27T00:49:13.741Z,839.45
2022-09-27T00:50:13.635Z,839.45
2022-09-27T00:51:13.635Z,839.50
2022-09-27T00:52:13.613Z,839.52
2022-09-27T00:53:13.609Z,839.48
2022-09-27T00:54:13.690Z,839.49
2022-09-27T00:55:13.583Z,839.52
2022-09-27T00:56:13.574Z,839.55
2022-09-27T00:57:13.580Z,839.53
2022-09-27T00:58:13.576Z,839.53
2022-09-27T00:59:13.547Z,839.49
2022-09-27T01:00:13.625Z,839.47
2022-09-27T01:01:13.562Z,839.45
2022-09-27T01:02:13.591Z,839.47
2022-09-27T01:03:13.514Z,839.41
2022-09-27T01:04:13.491Z,839.44
2022-09-27T01:05:13.478Z,839.36
2022-09-27T01:06:13.497Z,839.32
2022-09-27T01:07:13.462Z,839.37
2022-09-27T01:08:13.443Z,839.33
2022-09-27T01:09:13.473Z,839.35
2022-09-27T01:10:13.416Z,839.33
2022-09-27T01:11:13.411Z,839.38
2022-09-27T01:12:13.473Z,839.31
2022-09-27T01:13:13.396Z,839.30
2022-09-27T01:14:13.401Z,839.30
2022-09-27T01:15:13.372Z,839.31
2022-09-27T01:16:13.453Z,839.29
2022-09-27T01:17:13.342Z,839.28
2022-09-27T01:18:13.367Z,839.33
2022-09-27T01:19:13.372Z,839.30
2022-09-27T01:20:13.316Z,839.31
2022-09-27T01:21:13.310Z,839.32
2022-09-27T01:22:13.306Z,839.32
2022-09-27T01:23:13.278Z,839.33
2022-09-27T01:24:13.334Z,839.33
2022-09-27T01:25:13.253Z,839.35
2022-09-27T01:26:13.251Z,839.33
2022-09-27T01:27:13.229Z,839.39
2022-09-27T01:28:13.221Z,839.31
2022-09-27T01:29:13.260Z,839.36
2022-09-27T01:30:13.302Z,839.32
2022-09-27T01:31:13.343Z,839.35
2022-09-27T01:32:13.210Z,839.34
2022-09-27T01:33:13.166Z,839.28
2022-09-27T01:34:13.165Z,839.26
2022-09-27T01:35:13.144Z,839.26
2022-09-27T01:36:13.178Z,839.28
2022-09-27T01:37:13.125Z,839.28
2022-09-27T01:38:13.128Z,839.23
2022-09-27T01:39:13.244Z,839.22
2022-09-27T01:40:13.196Z,839.23
2022-09-27T01:41:13.085Z,839.24
2022-09-27T01:42:13.523Z,839.27
2022-09-27T01:43:13.066Z,839.23
2022-09-27T01:44:13.054Z,839.27
2022-09-27T01:45:13.038Z,839.23
2022-09-27T01:46:13.127Z,839.27
2022-09-27T01:47:13.012Z,839.21
2022-09-27T01:48:13.061Z,839.21
2022-09-27T01:49:13.207Z,839.21
2022-09-27T01:50:12.979Z,839.25
2022-09-27T01:51:12.970Z,839.24
2022-09-27T01:52:12.960Z,839.22
2022-09-27T01:53:12.944Z,839.29
2022-09-27T01:54:13.050Z,839.26
2022-09-27T01:55:12.937Z,839.23
2022-09-27T01:56:12.912Z,839.22
2022-09-27T01:57:12.901Z,839.25
2022-09-27T01:58:12.891Z,839.18
2022-09-27T01:59:12.899Z,839.17
2022-09-27T02:00:12.910Z,839.20
2022-09-27T02:01:12.953Z,839.15
2022-09-27T02:02:12.917Z,839.14
2022-09-27T02:03:12.840Z,839.12
2022-09-27T02:04:12.937Z,839.14
2022-09-27T02:05:12.820Z,839.17
2022-09-27T02:06:13.072Z,839.16
2022-09-27T02:07:12.795Z,839.15
2022-09-27T02:08:12.787Z,839.12
2022-09-27T02:09:12.797Z,839.11
2022-09-27T02:10:12.846Z,839.08
2022-09-27T02:11:12.749Z,839.16
2022-09-27T02:12:12.740Z,839.16
2022-09-27T02:13:12.835Z,839.17
2022-09-27T02:14:12.719Z,839.12
2022-09-27T02:15:12.718Z,839.15
2022-09-27T02:16:12.786Z,839.13
2022-09-27T02:17:12.696Z,839.11
2022-09-27T02:18:12.702Z,839.04
2022-09-27T02:19:12.743Z,839.01
2022-09-27T02:20:12.653Z,839.01
2022-09-27T02:21:12.651Z,838.94
2022-09-27T02:22:12.631Z,838.98
2022-09-27T02:23:12.615Z,838.97
2022-09-27T02:24:12.604Z,838.96
2022-09-27T02:25:12.673Z,838.90
2022-09-27T02:26:12.595Z,838.94
2022-09-27T02:27:12.572Z,838.94
2022-09-27T02:28:12.562Z,838.91
2022-09-27T02:29:12.551Z,838.87
2022-09-27T02:30:12.544Z,838.90
2022-09-27T02:31:12.658Z,838.91
2022-09-27T02:32:12.520Z,838.83
2022-09-27T02:33:12.512Z,838.83
2022-09-27T02:34:12.529Z,838.83
2022-09-27T02:35:12.488Z,838.82
2022-09-27T02:36:12.480Z,838.82
2022-09-27T02:37:12.550Z,838.83
2022-09-27T02:38:12.455Z,838.79
2022-09-27T02:39:12.441Z,838.76
2022-09-27T02:40:12.595Z,838.75
2022-09-27T02:41:12.436Z,838.77
2022-09-27T02:42:12.407Z,838.74
2022-09-27T02:43:12.481Z,838.72
2022-09-27T02:44:12.388Z,838.73
2022-09-27T02:45:12.379Z,838.75
2022-09-27T02:46:12.415Z,838.70
2022-09-27T02:47:12.369Z,838.69
2022-09-27T02:48:12.345Z,838.68
2022-09-27T02:49:12.406Z,838.70
2022-09-27T02:50:12.347Z,838.72
2022-09-27T02:51:12.323Z,838.74
2022-09-27T02:52:12.301Z,838.66
2022-09-27T02:53:12.288Z,838.70
2022-09-27T02:54:12.281Z,838.66
2022-09-27T02:55:12.327Z,838.66
2022-09-27T02:56:12.253Z,838.65
2022-09-27T02:57:12.314Z,838.70
2022-09-27T02:58:12.244Z,838.67
2022-09-27T02:59:12.223Z,838.74
2022-09-27T03:00:12.224Z,838.70
2022-09-27T03:01:12.302Z,838.70
2022-09-27T03:02:13.821Z,838.75
2022-09-27T03:03:12.299Z,838.68
2022-09-27T03:04:12.168Z,838.69
2022-09-27T03:05:12.157Z,838.70
2022-09-27T03:06:12.170Z,838.67
2022-09-27T03:07:12.205Z,838.68
2022-09-27T03:08:12.134Z,838.66
2022-09-27T03:09:12.114Z,838.63
2022-09-27T03:10:12.102Z,838.64
2022-09-27T03:11:12.090Z,838.67
2022-09-27T03:12:12.179Z,838.65
2022-09-27T03:13:12.145Z,838.62
2022-09-27T03:14:12.056Z,838.65
2022-09-27T03:15:12.046Z,838.65
2022-09-27T03:16:12.035Z,838.63
2022-09-27T03:17:12.098Z,838.70
2022-09-27T03:18:12.018Z,838.65
2022-09-27T03:19:12.070Z,838.64
2022-09-27T03:20:11.989Z,838.68
2022-09-27T03:21:11.994Z,838.69
2022-09-27T03:22:12.014Z,838.69
2022-09-27T03:23:11.956Z,838.69
2022-09-27T03:24:11.949Z,838.69
2022-09-27T03:25:12.055Z,838.70
2022-09-27T03:26:13.126Z,838.73
2022-09-27T03:27:11.925Z,838.75
2022-09-27T03:28:11.899Z,838.74
2022-09-27T03:29:11.899Z,838.75
2022-09-27T03:30:11.883Z,838.76
2022-09-27T03:31:12.002Z,838.80
2022-09-27T03:32:11.863Z,838.81
2022-09-27T03:33:11.851Z,838.83
2022-09-27T03:34:11.835Z,838.84
2022-09-27T03:35:11.843Z,838.93
2022-09-27T03:36:11.818Z,838.94
2022-09-27T03:37:11.875Z,839.02
2022-09-27T03:38:11.827Z,839.04
2022-09-27T03:39:11.784Z,839.12
2022-09-27T03:40:11.776Z,839.09
2022-09-27T03:41:11.981Z,839.14
2022-09-27T03:42:11.753Z,839.14
2022-09-27T03:43:11.789Z,839.16
2022-09-27T03:44:11.727Z,839.13
2022-09-27T03:45:11.718Z,839.17
2022-09-27T03:46:11.792Z,839.16
2022-09-27T03:47:11.704Z,839.20
2022-09-27T03:48:11.684Z,839.22
2022-09-27T03:49:11.671Z,839.20
2022-09-27T03:50:11.660Z,839.25
2022-09-27T03:51:11.657Z,839.25
2022-09-27T03:52:11.740Z,839.27
2022-09-27T03:53:11.627Z,839.28
2022-09-27T03:54:11.645Z,839.32
2022-09-27T03:55:11.605Z,839.32
2022-09-27T03:56:11.594Z,839.28
2022-09-27T03:57:11.584Z,839.26
2022-09-27T03:58:11.591Z,839.23
2022-09-27T03:59:11.565Z,839.28
2022-09-27T04:00:11.601Z,839.27
2022-09-27T04:01:11.587Z,839.30
2022-09-27T04:02:11.619Z,839.26
2022-09-27T04:03:11.549Z,839.26
2022-09-27T04:04:11.599Z,839.25
2022-09-27T04:05:11.505Z,839.32
2022-09-27T04:06:11.487Z,839.32
2022-09-27T04:07:11.474Z,839.28
2022-09-27T04:08:11.540Z,839.26
2022-09-27T04:09:11.547Z,839.23
2022-09-27T04:10:11.465Z,839.23
2022-09-27T04:11:11.429Z,839.28
2022-09-27T04:12:11.422Z,839.25
2022-09-27T04:13:11.407Z,839.34
2022-09-27T04:14:11.408Z,839.32
2022-09-27T04:15:11.397Z,839.34
2022-09-27T04:16:11.374Z,839.34
2022-09-27T04:17:11.501Z,839.28
2022-09-27T04:18:11.357Z,839.22
2022-09-27T04:19:11.389Z,839.17
2022-09-27T04:20:11.372Z,839.09
2022-09-27T04:21:11.334Z,839.06
2022-09-27T04:22:11.310Z,839.05
2022-09-27T04:23:11.299Z,839.05
2022-09-27T04:24:11.287Z,839.06
2022-09-27T04:25:11.282Z,839.03
2022-09-27T04:26:11.373Z,839.01
2022-09-27T04:27:11.256Z,839.03
2022-09-27T04:28:11.244Z,839.01
2022-09-27T04:29:11.375Z,839.03
2022-09-27T04:30:11.453Z,839.06
2022-09-27T04:31:11.331Z,839.09
2022-09-27T04:32:11.286Z,839.09
2022-09-27T04:33:11.189Z,839.05
2022-09-27T04:34:11.176Z,839.01
2022-09-27T04:35:11.214Z,839.04
2022-09-27T04:36:11.157Z,839.02
2022-09-27T04:37:11.144Z,839.07
2022-09-27T04:38:11.153Z,839.07
2022-09-27T04:39:11.200Z,839.07
2022-09-27T04:40:11.110Z,839.11
2022-09-27T04:41:11.102Z,839.11
2022-09-27T04:42:11.120Z,839.13
2022-09-27T04:43:11.091Z,839.17
2022-09-27T04:44:11.069Z,839.07
2022-09-27T04:45:11.177Z,839.13
2022-09-27T04:46:11.126Z,839.16
2022-09-27T04:47:11.082Z,839.20
2022-09-27T04:48:11.134Z,839.26
2022-09-27T04:49:11.127Z,839.22
2022-09-27T04:50:11.003Z,839.30
2022-09-27T04:51:11.085Z,839.27
2022-09-27T04:52:10.988Z,839.33
2022-09-27T04:53:10.970Z,839.32
2022-09-27T04:54:10.986Z,839.37
2022-09-27T04:55:10.956Z,839.40
2022-09-27T04:56:11.036Z,839.42
2022-09-27T04:57:10.930Z,839.38
2022-09-27T04:58:10.944Z,839.43
2022-09-27T04:59:11.066Z,839.44
2022-09-27T05:00:10.895Z,839.43
2022-09-27T05:01:10.949Z,839.44
2022-09-27T05:02:10.966Z,839.47
2022-09-27T05:03:10.909Z,839.48
2022-09-27T05:04:10.850Z,839.44
2022-09-27T05:05:10.849Z,839.47
2022-09-27T05:06:10.829Z,839.49
2022-09-27T05:07:10.822Z,839.56
2022-09-27T05:08:10.820Z,839.52
2022-09-27T05:09:10.951Z,839.48
2022-09-27T05:10:10.786Z,839.53
2022-09-27T05:11:10.782Z,839.48
2022-09-27T05:12:10.765Z,839.50
2022-09-27T05:13:10.753Z,839.53
2022-09-27T05:14:10.770Z,839.55
2022-09-27T05:15:10.842Z,839.57
2022-09-27T05:16:10.744Z,839.61
2022-09-27T05:17:10.776Z,839.62
2022-09-27T05:18:10.705Z,839.58
2022-09-27T05:19:10.764Z,839.66
2022-09-27T05:20:10.691Z,839.65
2022-09-27T05:21:10.667Z,839.59
2022-09-27T05:22:10.722Z,839.60
2022-09-27T05:23:10.642Z,839.59
2022-09-27T05:24:10.644Z,839.59
2022-09-27T05:25:10.638Z,839.56
2022-09-27T05:26:10.879Z,839.58
2022-09-27T05:27:10.600Z,839.55
2022-09-27T05:28:10.662Z,839.57
2022-09-27T05:29:10.625Z,839.51
2022-09-27T05:30:10.595Z,839.54
2022-09-27T05:31:10.639Z,839.52
2022-09-27T05:32:10.587Z,839.54
2022-09-27T05:33:10.534Z,839.55
2022-09-27T05:34:10.603Z,839.54
2022-09-27T05:35:10.516Z,839.52
2022-09-27T05:36:10.513Z,839.60
2022-09-27T05:37:10.505Z,839.57
2022-09-27T05:38:10.480Z,839.61
2022-09-27T05:39:10.553Z,839.59
2022-09-27T05:40:29.317Z,839.61
2022-09-27T05:41:11.506Z,839.61
2022-09-27T05:42:10.438Z,839.64
2022-09-27T05:43:10.429Z,839.62
2022-09-27T05:44:10.488Z,839.63
2022-09-27T05:45:10.406Z,839.66
2022-09-27T05:46:10.506Z,839.61
2022-09-27T05:47:10.389Z,839.63
2022-09-27T05:48:10.372Z,839.61
2022-09-27T05:49:10.482Z,839.60
2022-09-27T05:50:10.352Z,839.64
2022-09-27T05:51:10.340Z,839.60
2022-09-27T05:52:14.993Z,839.63
2022-09-27T05:53:11.322Z,839.63
2022-09-27T05:54:10.375Z,839.58
2022-09-27T05:55:10.406Z,839.59
2022-09-27T05:56:10.287Z,839.63
2022-09-27T05:57:10.277Z,839.67
2022-09-27T05:58:10.321Z,839.69
2022-09-27T05:59:10.252Z,839.65
2022-09-27T06:00:10.245Z,839.69
2022-09-27T06:01:10.304Z,839.65
2022-09-27T06:02:10.501Z,839.64
2022-09-27T06:03:10.214Z,839.61
2022-09-27T06:04:10.269Z,839.59
2022-09-27T06:05:10.193Z,839.58
2022-09-27T06:06:10.180Z,839.55
2022-09-27T06:07:10.181Z,839.56
2022-09-27T06:08:10.157Z,839.58
2022-09-27T06:09:10.146Z,839.57
2022-09-27T06:10:10.213Z,839.64
2022-09-27T06:11:10.143Z,839.60
2022-09-27T06:12:10.111Z,839.66
2022-09-27T06:13:10.110Z,839.65
2022-09-27T06:14:10.089Z,839.65
2022-09-27T06:15:10.076Z,839.66
2022-09-27T06:16:10.065Z,839.67
2022-09-27T06:17:10.169Z,839.64
2022-09-27T06:18:10.069Z,839.65
2022-09-27T06:19:10.037Z,839.65
2022-09-27T06:20:10.031Z,839.67
2022-09-27T06:21:10.017Z,839.65
2022-09-27T06:22:10.006Z,839.70
2022-09-27T06:23:10.021Z,839.65
2022-09-27T06:24:09.983Z,839.72
2022-09-27T06:25:09.970Z,839.69
2022-09-27T06:26:09.967Z,839.71
2022-09-27T06:27:09.950Z,839.72
2022-09-27T06:28:09.938Z,839.76
2022-09-27T06:29:10.088Z,839.76
2022-09-27T06:30:09.917Z,839.79
2022-09-27T06:31:09.959Z,839.80
2022-09-27T06:32:09.897Z,839.79
2022-09-27T06:33:09.883Z,839.81
2022-09-27T06:34:09.895Z,839.79
2022-09-27T06:35:09.932Z,839.86
2022-09-27T06:36:09.907Z,839.89
2022-09-27T06:37:09.857Z,839.86
2022-09-27T06:38:09.832Z,839.87
2022-09-27T06:39:09.885Z,839.87
2022-09-27T06:40:09.808Z,839.83
2022-09-27T06:41:09.896Z,839.88
2022-09-27T06:42:09.788Z,839.85
2022-09-27T06:43:09.774Z,839.89
2022-09-27T06:44:09.768Z,839.88
2022-09-27T06:45:09.754Z,839.85
2022-09-27T06:46:09.840Z,839.87
2022-09-27T06:47:09.800Z,839.90
2022-09-27T06:48:09.718Z,839.89
2022-09-27T06:49:09.758Z,839.90
2022-09-27T06:50:09.929Z,839.95
2022-09-27T06:51:09.695Z,839.98
2022-09-27T06:52:09.688Z,840.00
2022-09-27T06:53:09.679Z,840.00
2022-09-27T06:54:09.660Z,840.06
2022-09-27T06:55:09.639Z,840.08
2022-09-27T06:56:09.632Z,840.05
2022-09-27T06:57:09.636Z,840.06
2022-09-27T06:58:09.612Z,840.07
2022-09-27T06:59:09.732Z,840.06
2022-09-27T07:00:09.593Z,840.07
2022-09-27T07:01:09.634Z,840.10
2022-09-27T07:02:09.599Z,840.12
2022-09-27T07:03:09.575Z,840.13
2022-09-27T07:04:09.548Z,840.16
2022-09-27T07:05:09.600Z,840.19
2022-09-27T07:06:09.550Z,840.17
2022-09-27T07:07:09.516Z,840.16
2022-09-27T07:08:09.571Z,840.22
2022-09-27T07:09:09.507Z,840.23
2022-09-27T07:10:10.097Z,840.25
2022-09-27T07:11:09.478Z,840.30
2022-09-27T07:12:09.454Z,840.25
2022-09-27T07:13:09.503Z,840.30
2022-09-27T07:14:09.433Z,840.29
2022-09-27T07:15:09.438Z,840.34
2022-09-27T07:16:09.461Z,840.31
2022-09-27T07:17:09.399Z,840.31
2022-09-27T07:18:09.387Z,840.32
2022-09-27T07:19:09.495Z,840.29
2022-09-27T07:20:09.479Z,840.35
2022-09-27T07:21:09.356Z,840.35
2022-09-27T07:22:09.370Z,840.35
2022-09-27T07:23:09.335Z,840.41
2022-09-27T07:24:09.325Z,840.38
2022-09-27T07:25:09.319Z,840.40
2022-09-27T07:26:09.312Z,840.36
2022-09-27T07:27:09.291Z,840.40
2022-09-27T07:28:09.280Z,840.36
2022-09-27T07:29:09.268Z,840.41
2022-09-27T07:30:09.259Z,840.42
2022-09-27T07:31:09.365Z,840.44
2022-09-27T07:32:09.249Z,840.49
2022-09-27T07:33:09.226Z,840.46
2022-09-27T07:34:09.218Z,840.51
2022-09-27T07:35:09.205Z,840.53
2022-09-27T07:36:09.197Z,840.55
2022-09-27T07:37:09.257Z,840.55
2022-09-27T07:38:09.206Z,840.57
2022-09-27T07:39:09.185Z,840.58
2022-09-27T07:40:09.149Z,840.61
2022-09-27T07:41:09.139Z,840.64
2022-09-27T07:42:09.125Z,840.67
2022-09-27T07:43:09.191Z,840.61
2022-09-27T07:44:09.104Z,840.70
2022-09-27T07:45:09.442Z,840.70
2022-09-27T07:46:09.132Z,840.65
2022-09-27T07:47:09.070Z,840.70
2022-09-27T07:48:09.088Z,840.67
2022-09-27T07:49:09.126Z,840.68
2022-09-27T07:50:09.113Z,840.66
2022-09-27T07:51:09.023Z,840.64
2022-09-27T07:52:09.013Z,840.69
2022-09-27T07:53:09.006Z,840.70
2022-09-27T07:54:09.130Z,840.71
2022-09-27T07:55:08.993Z,840.70
2022-09-27T07:56:09.053Z,840.70
2022-09-27T07:57:08.964Z,840.64
2022-09-27T07:58:08.965Z,840.64
2022-09-27T07:59:09.028Z,840.56
2022-09-27T08:00:08.928Z,840.55
2022-09-27T08:01:09.095Z,840.57
2022-09-27T08:02:08.965Z,840.54
2022-09-27T08:03:08.893Z,840.55
2022-09-27T08:04:08.885Z,840.54
2022-09-27T08:05:08.873Z,840.59
2022-09-27T08:06:08.861Z,840.57
2022-09-27T08:07:12.349Z,840.55
2022-09-27T08:08:09.848Z,840.56
2022-09-27T08:09:08.886Z,840.56
2022-09-27T08:10:08.847Z,840.53
2022-09-27T08:11:08.810Z,840.51
2022-09-27T08:12:08.796Z,840.51
2022-09-27T08:13:08.806Z,840.52
2022-09-27T08:14:08.864Z,840.55
2022-09-27T08:15:08.764Z,840.57
2022-09-27T08:16:08.805Z,840.53
2022-09-27T08:17:08.755Z,840.52
2022-09-27T08:18:08.733Z,840.50
2022-09-27T08:19:08.763Z,840.49
2022-09-27T08:20:08.788Z,840.52
2022-09-27T08:21:08.696Z,840.49
2022-09-27T08:22:08.685Z,840.50
2022-09-27T08:23:08.749Z,840.56
2022-09-27T08:24:08.666Z,840.56
2022-09-27T08:25:08.655Z,840.58
2022-09-27T08:26:08.724Z,840.60
2022-09-27T08:27:11.536Z,840.61
2022-09-27T08:28:08.626Z,840.63
2022-09-27T08:29:08.636Z,840.61
2022-09-27T08:30:08.611Z,840.67
2022-09-27T08:31:08.657Z,840.63
2022-09-27T08:32:08.619Z,840.67
2022-09-27T08:33:08.572Z,840.71
2022-09-27T08:34:08.678Z,840.70
2022-09-27T08:35:08.551Z,840.73
2022-09-27T08:36:08.557Z,840.71
2022-09-27T08:37:08.598Z,840.71
2022-09-27T08:38:08.515Z,840.70
2022-09-27T08:39:08.503Z,840.69
2022-09-27T08:40:08.492Z,840.69
2022-09-27T08:41:08.480Z,840.77
2022-09-27T08:42:08.527Z,840.77
2022-09-27T08:43:08.520Z,840.74
2022-09-27T08:44:08.521Z,840.77
2022-09-27T08:45:08.434Z,840.80
2022-09-27T08:46:08.491Z,840.77
2022-09-27T08:47:08.412Z,840.76
2022-09-27T08:48:08.417Z,840.84
2022-09-27T08:49:08.396Z,840.82
2022-09-27T08:50:08.385Z,840.78
2022-09-27T08:51:08.371Z,840.75
2022-09-27T08:52:08.371Z,840.70
2022-09-27T08:53:08.351Z,840.67
2022-09-27T08:54:08.343Z,840.71
2022-09-27T08:55:08.382Z,840.68
2022-09-27T08:56:08.317Z,840.71
2022-09-27T08:57:08.307Z,840.73
2022-09-27T08:58:08.335Z,840.67
2022-09-27T08:59:08.280Z,840.68
2022-09-27T09:00:08.273Z,840.75
2022-09-27T09:01:08.805Z,840.73
2022-09-27T09:02:08.286Z,840.76
2022-09-27T09:03:08.239Z,840.76
2022-09-27T09:04:08.335Z,840.75
2022-09-27T09:05:08.216Z,840.77
2022-09-27T09:06:08.204Z,840.78
2022-09-27T09:07:08.274Z,840.79
2022-09-27T09:08:08.182Z,840.75
2022-09-27T09:09:08.169Z,840.77
2022-09-27T09:10:08.182Z,840.78
2022-09-27T09:11:08.171Z,840.75
2022-09-27T09:12:08.144Z,840.78
2022-09-27T09:13:08.185Z,840.72
2022-09-27T09:14:12.761Z,840.77
2022-09-27T09:15:09.119Z,840.77
2022-09-27T09:16:08.168Z,840.71
2022-09-27T09:17:08.090Z,840.74
2022-09-27T09:18:08.075Z,840.69
2022-09-27T09:19:08.125Z,840.74
2022-09-27T09:20:08.050Z,840.72
2022-09-27T09:21:08.051Z,840.68
2022-09-27T09:22:08.042Z,840.71
2022-09-27T09:23:08.018Z,840.71
2022-09-27T09:24:08.010Z,840.70
2022-09-27T09:25:08.039Z,840.65
2022-09-27T09:26:07.999Z,840.67
2022-09-27T09:27:07.982Z,840.63
2022-09-27T09:28:07.964Z,840.65
2022-09-27T09:29:07.955Z,840.65
2022-09-27T09:30:07.971Z,840.68
2022-09-27T09:31:07.947Z,840.67
2022-09-27T09:32:07.936Z,840.69
2022-09-27T09:33:07.914Z,840.66
2022-09-27T09:34:07.902Z,840.59
2022-09-27T09:35:07.886Z,840.64
2022-09-27T09:36:07.887Z,840.66
2022-09-27T09:37:07.953Z,840.66
2022-09-27T09:38:07.851Z,840.70
2022-09-27T09:39:07.841Z,840.69
2022-09-27T09:40:09.225Z,840.76
2022-09-27T09:41:07.818Z,840.77
2022-09-27T09:42:07.826Z,840.78
2022-09-27T09:43:07.859Z,840.76
2022-09-27T09:44:07.788Z,840.75
2022-09-27T09:45:07.775Z,840.76
2022-09-27T09:46:07.864Z,840.82
2022-09-27T09:47:07.756Z,840.81
2022-09-27T09:48:07.853Z,840.85
2022-09-27T09:49:07.814Z,840.83
2022-09-27T09:50:07.719Z,840.74
2022-09-27T09:51:07.715Z,840.78
2022-09-27T09:52:09.183Z,840.73
2022-09-27T09:53:07.692Z,840.76
2022-09-27T09:54:07.729Z,840.74
2022-09-27T09:55:07.770Z,840.74
2022-09-27T09:56:07.655Z,840.71
2022-09-27T09:57:07.643Z,840.64
2022-09-27T09:58:07.632Z,840.65
2022-09-27T09:59:07.635Z,840.65
2022-09-27T10:00:07.612Z,840.63
2022-09-27T10:01:07.740Z,840.63
2022-09-27T10:02:07.706Z,840.59
2022-09-27T10:03:07.577Z,840.61
2022-09-27T10:04:07.567Z,840.58
2022-09-27T10:05:08.154Z,840.57
2022-09-27T10:06:07.547Z,840.55
2022-09-27T10:07:07.597Z,840.58
2022-09-27T10:08:07.528Z,840.58
2022-09-27T10:09:07.512Z,840.58
2022-09-27T10:10:07.515Z,840.57
2022-09-27T10:11:07.493Z,840.63
2022-09-27T10:12:07.486Z,840.57
2022-09-27T10:13:07.537Z,840.64
2022-09-27T10:14:07.457Z,840.64
2022-09-27T10:15:07.446Z,840.69
2022-09-27T10:16:07.501Z,840.68
2022-09-27T10:17:07.425Z,840.67
2022-09-27T10:18:07.509Z,840.72
2022-09-27T10:19:07.478Z,840.70
2022-09-27T10:20:07.403Z,840.68
2022-09-27T10:21:07.400Z,840.73
2022-09-27T10:22:07.370Z,840.74
2022-09-27T10:23:07.355Z,840.73
2022-09-27T10:24:07.375Z,840.74
2022-09-27T10:25:07.343Z,840.76
2022-09-27T10:26:07.324Z,840.75
2022-09-27T10:27:07.315Z,840.82
2022-09-27T10:28:07.302Z,840.84
2022-09-27T10:29:07.292Z,840.81
2022-09-27T10:30:07.292Z,840.81
2022-09-27T10:31:07.290Z,840.84
2022-09-27T10:32:07.259Z,840.86
2022-09-27T10:33:07.250Z,840.84
2022-09-27T10:34:07.525Z,840.90
2022-09-27T10:35:07.238Z,840.88
2022-09-27T10:36:07.217Z,840.92
2022-09-27T10:37:07.226Z,840.93
2022-09-27T10:38:07.196Z,840.94
2022-09-27T10:39:07.178Z,840.94
2022-09-27T10:40:07.180Z,840.93
2022-09-27T10:41:07.161Z,840.92
2022-09-27T10:42:07.152Z,840.96
2022-09-27T10:43:07.198Z,841.00
2022-09-27T10:44:07.129Z,840.94
2022-09-27T10:45:07.116Z,840.93
2022-09-27T10:46:07.175Z,840.98
2022-09-27T10:47:07.096Z,840.96
2022-09-27T10:48:07.085Z,840.94
2022-09-27T10:49:07.136Z,840.97
2022-09-27T10:50:07.093Z,840.98
2022-09-27T10:51:07.053Z,841.02
2022-09-27T10:52:07.056Z,841.03
2022-09-27T10:53:07.033Z,841.07
2022-09-27T10:54:07.027Z,841.08
2022-09-27T10:55:07.031Z,841.07
2022-09-27T10:56:07.007Z,841.08
2022-09-27T10:57:06.987Z,841.12
2022-09-27T10:58:06.990Z,841.12
2022-09-27T10:59:06.967Z,841.16
2022-09-27T11:00:06.957Z,841.17
2022-09-27T11:01:07.044Z,841.19
2022-09-27T11:02:06.936Z,841.22
2022-09-27T11:03:06.959Z,841.25
2022-09-27T11:04:06.917Z,841.26
2022-09-27T11:05:07.250Z,841.39
2022-09-27T11:06:06.915Z,841.28
2022-09-27T11:07:06.949Z,841.33
2022-09-27T11:08:06.871Z,841.30
2022-09-27T11:09:06.871Z,841.36
2022-09-27T11:10:06.849Z,841.45
2022-09-27T11:11:06.837Z,841.51
2022-09-27T11:12:06.825Z,841.50
2022-09-27T11:13:06.873Z,841.49
2022-09-27T11:14:06.813Z,841.53
2022-09-27T11:15:06.794Z,841.56
2022-09-27T11:16:06.815Z,841.57
2022-09-27T11:17:06.769Z,841.47
2022-09-27T11:18:06.755Z,841.47
2022-09-27T11:19:06.825Z,841.49
2022-09-27T11:20:06.738Z,841.48
2022-09-27T11:21:06.735Z,841.53
2022-09-27T11:22:06.744Z,841.55
2022-09-27T11:23:06.708Z,841.55
2022-09-27T11:24:06.704Z,841.61
2022-09-27T11:25:06.813Z,841.57
2022-09-27T11:26:06.670Z,841.54
2022-09-27T11:27:06.659Z,841.55
2022-09-27T11:28:06.649Z,841.55
2022-09-27T11:29:06.636Z,841.60
2022-09-27T11:30:06.642Z,841.61
2022-09-27T11:31:06.771Z,841.59
2022-09-27T11:32:06.679Z,841.60
2022-09-27T11:33:06.596Z,841.56
2022-09-27T11:34:06.585Z,841.55
2022-09-27T11:35:06.591Z,841.55
2022-09-27T11:36:06.562Z,841.50
2022-09-27T11:37:06.620Z,841.51
2022-09-27T11:38:06.571Z,841.53
2022-09-27T11:39:06.529Z,841.53
2022-09-27T11:40:06.522Z,841.59
2022-09-27T11:41:06.525Z,841.55
2022-09-27T11:42:06.499Z,841.59
2022-09-27T11:43:06.549Z,841.55
2022-09-27T11:44:06.476Z,841.55
2022-09-27T11:45:34.354Z,841.53
2022-09-27T11:46:19.309Z,841.55
2022-09-27T11:47:07.608Z,841.55
2022-09-27T11:48:06.530Z,841.51
2022-09-27T11:49:06.487Z,841.48
2022-09-27T11:50:06.409Z,841.46
2022-09-27T11:51:06.408Z,841.46
2022-09-27T11:52:06.440Z,841.51
2022-09-27T11:53:06.375Z,841.48
2022-09-27T11:54:06.395Z,841.51
2022-09-27T11:55:06.417Z,841.49
2022-09-27T11:56:06.339Z,841.53
2022-09-27T11:57:06.342Z,841.52
2022-09-27T11:58:06.323Z,841.55
2022-09-27T11:59:06.311Z,841.57
2022-09-27T12:00:06.304Z,841.56
2022-09-27T12:01:06.369Z,841.54
2022-09-27T12:02:06.357Z,841.55
2022-09-27T12:03:06.338Z,841.52
2022-09-27T12:04:06.257Z,841.53
2022-09-27T12:05:06.242Z,841.51
2022-09-27T12:06:07.688Z,841.52
2022-09-27T12:07:06.296Z,841.41
2022-09-27T12:08:06.214Z,841.46
2022-09-27T12:09:06.215Z,841.47
2022-09-27T12:10:06.215Z,841.46
2022-09-27T12:11:06.179Z,841.46
2022-09-27T12:12:06.169Z,841.49
2022-09-27T12:13:06.229Z,841.50
2022-09-27T12:14:06.144Z,841.47
2022-09-27T12:15:07.391Z,841.47
2022-09-27T12:16:06.193Z,841.45
2022-09-27T12:17:06.114Z,841.44
2022-09-27T12:18:06.102Z,841.44
2022-09-27T12:19:06.153Z,841.43
2022-09-27T12:20:06.092Z,841.44
2022-09-27T12:21:06.074Z,841.37
2022-09-27T12:22:06.059Z,841.42
2022-09-27T12:23:06.046Z,841.38
2022-09-27T12:24:06.037Z,841.41
2022-09-27T12:25:06.102Z,841.38
2022-09-27T12:26:06.039Z,841.39
2022-09-27T12:27:06.005Z,841.30
2022-09-27T12:28:05.994Z,841.33